sensor_id;sensor_type;location;lat;lon;timestamp;P1;durP1;ratioP1;P2;durP2;ratioP2
75718;SDS011;64340;48.534;-3.036;2023-05-07T00:01:56;4.70;;;3.33;;
75718;SDS011;64340;48.534;-3.036;2023-05-07T00:04:22;5.78;;;4.15;;
75718;SDS011;64340;48.534;-3.036;2023-05-07T00:06:47;5.15;;;3.47;;
75718;SDS011;64340;48.534;-3.036;2023-05-07T00:09:13;4.40;;;3.33;;
75718;SDS011;64340;48.534;-3.036;2023-05-07T00:11:39;5.15;;;3.65;;
75718;SDS011;64340;48.534;-3.036;2023-05-07T00:14:05;5.30;;;3.33;;
75718;SDS011;64340;48.534;-3.036;2023-05-07T00:16:31;4.95;;;3.65;;
75718;SDS011;64340;48.534;-3.036;2023-05-07T00:18:57;5.47;;;3.75;;
75718;SDS011;64340;48.534;-3.036;2023-05-07T00:21:22;5.25;;;3.20;;
75718;SDS011;64340;48.534;-3.036;2023-05-07T00:23:51;4.97;;;3.42;;
75718;SDS011;64340;48.534;-3.036;2023-05-07T00:26:18;5.05;;;3.55;;
75718;SDS011;64340;48.534;-3.036;2023-05-07T00:28:44;5.15;;;3.60;;
75718;SDS011;64340;48.534;-3.036;2023-05-07T00:31:10;3.67;;;2.92;;
75718;SDS011;64340;48.534;-3.036;2023-05-07T00:33:35;4.85;;;3.40;;
75718;SDS011;64340;48.534;-3.036;2023-05-07T00:36:01;4.43;;;3.10;;
75718;SDS011;64340;48.534;-3.036;2023-05-07T00:38:27;3.53;;;2.90;;
75718;SDS011;64340;48.534;-3.036;2023-05-07T00:40:53;5.63;;;3.10;;
75718;SDS011;64340;48.534;-3.036;2023-05-07T00:43:19;3.80;;;2.70;;
75718;SDS011;64340;48.534;-3.036;2023-05-07T00:45:45;4.20;;;3.30;;
75718;SDS011;64340;48.534;-3.036;2023-05-07T00:48:11;4.53;;;3.10;;
75718;SDS011;64340;48.534;-3.036;2023-05-07T00:50:37;5.57;;;3.50;;
75718;SDS011;64340;48.534;-3.036;2023-05-07T00:53:03;3.80;;;2.55;;
75718;SDS011;64340;48.534;-3.036;2023-05-07T00:55:29;5.22;;;3.42;;
75718;SDS011;64340;48.534;-3.036;2023-05-07T00:57:55;5.03;;;2.75;;
75718;SDS011;64340;48.534;-3.036;2023-05-07T01:00:21;4.70;;;2.72;;
75718;SDS011;64340;48.534;-3.036;2023-05-07T01:02:47;4.53;;;2.85;;
75718;SDS011;64340;48.534;-3.036;2023-05-07T01:05:15;3.95;;;2.42;;
75718;SDS011;64340;48.534;-3.036;2023-05-07T01:07:42;3.70;;;2.80;;
75718;SDS011;64340;48.534;-3.036;2023-05-07T01:10:09;4.90;;;2.80;;
75718;SDS011;64340;48.534;-3.036;2023-05-07T01:12:37;4.30;;;2.70;;
75718;SDS011;64340;48.534;-3.036;2023-05-07T01:15:04;3.53;;;2.63;;
75718;SDS011;64340;48.534;-3.036;2023-05-07T01:17:36;3.33;;;2.58;;
75718;SDS011;64340;48.534;-3.036;2023-05-07T01:20:06;4.10;;;3.05;;
75718;SDS011;64340;48.534;-3.036;2023-05-07T01:22:34;3.88;;;2.88;;
75718;SDS011;64340;48.534;-3.036;2023-05-07T01:25:04;4.05;;;2.72;;
75718;SDS011;64340;48.534;-3.036;2023-05-07T01:27:30;3.78;;;2.38;;
75718;SDS011;64340;48.534;-3.036;2023-05-07T01:29:58;5.85;;;2.60;;
75718;SDS011;64340;48.534;-3.036;2023-05-07T01:32:27;4.38;;;2.85;;
75718;SDS011;64340;48.534;-3.036;2023-05-07T01:34:58;4.03;;;2.53;;
75718;SDS011;64340;48.534;-3.036;2023-05-07T01:37:26;3.72;;;2.83;;
75718;SDS011;64340;48.534;-3.036;2023-05-07T01:39:52;3.20;;;2.45;;
75718;SDS011;64340;48.534;-3.036;2023-05-07T01:42:18;4.07;;;2.60;;
75718;SDS011;64340;48.534;-3.036;2023-05-07T01:44:45;5.03;;;3.05;;
75718;SDS011;64340;48.534;-3.036;2023-05-07T01:47:11;4.97;;;3.15;;
75718;SDS011;64340;48.534;-3.036;2023-05-07T01:49:38;4.47;;;2.75;;
75718;SDS011;64340;48.534;-3.036;2023-05-07T01:52:04;6.63;;;2.95;;
75718;SDS011;64340;48.534;-3.036;2023-05-07T01:54:30;3.92;;;2.72;;
75718;SDS011;64340;48.534;-3.036;2023-05-07T01:56:56;4.35;;;2.53;;
75718;SDS011;64340;48.534;-3.036;2023-05-07T01:59:22;2.95;;;2.30;;
75718;SDS011;64340;48.534;-3.036;2023-05-07T02:01:48;6.00;;;2.47;;
75718;SDS011;64340;48.534;-3.036;2023-05-07T02:04:14;4.05;;;2.20;;
75718;SDS011;64340;48.534;-3.036;2023-05-07T02:06:40;4.00;;;2.63;;
75718;SDS011;64340;48.534;-3.036;2023-05-07T02:09:05;4.18;;;2.47;;
75718;SDS011;64340;48.534;-3.036;2023-05-07T02:11:31;3.85;;;2.42;;
75718;SDS011;64340;48.534;-3.036;2023-05-07T02:13:57;4.13;;;2.40;;
75718;SDS011;64340;48.534;-3.036;2023-05-07T02:16:23;3.35;;;2.30;;
75718;SDS011;64340;48.534;-3.036;2023-05-07T02:18:49;4.47;;;2.30;;
75718;SDS011;64340;48.534;-3.036;2023-05-07T02:21:14;3.80;;;2.45;;
75718;SDS011;64340;48.534;-3.036;2023-05-07T02:23:40;3.58;;;2.42;;
75718;SDS011;64340;48.534;-3.036;2023-05-07T02:26:06;3.47;;;2.30;;
75718;SDS011;64340;48.534;-3.036;2023-05-07T02:28:32;3.92;;;2.40;;
75718;SDS011;64340;48.534;-3.036;2023-05-07T02:31:00;3.30;;;2.10;;
75718;SDS011;64340;48.534;-3.036;2023-05-07T02:33:28;4.07;;;2.47;;
75718;SDS011;64340;48.534;-3.036;2023-05-07T02:35:53;3.60;;;2.38;;
75718;SDS011;64340;48.534;-3.036;2023-05-07T02:38:19;4.45;;;2.53;;
75718;SDS011;64340;48.534;-3.036;2023-05-07T02:40:45;3.35;;;2.20;;
75718;SDS011;64340;48.534;-3.036;2023-05-07T02:43:11;5.38;;;2.40;;
75718;SDS011;64340;48.534;-3.036;2023-05-07T02:45:36;3.85;;;2.25;;
75718;SDS011;64340;48.534;-3.036;2023-05-07T02:48:03;4.55;;;2.63;;
75718;SDS011;64340;48.534;-3.036;2023-05-07T02:50:30;5.18;;;2.45;;
75718;SDS011;64340;48.534;-3.036;2023-05-07T02:52:57;3.42;;;2.40;;
75718;SDS011;64340;48.534;-3.036;2023-05-07T02:55:23;4.32;;;2.53;;
75718;SDS011;64340;48.534;-3.036;2023-05-07T02:57:49;4.35;;;2.40;;
75718;SDS011;64340;48.534;-3.036;2023-05-07T03:00:16;3.35;;;2.67;;
75718;SDS011;64340;48.534;-3.036;2023-05-07T03:02:44;3.63;;;2.22;;
75718;SDS011;64340;48.534;-3.036;2023-05-07T03:05:10;4.30;;;2.60;;
75718;SDS011;64340;48.534;-3.036;2023-05-07T03:07:36;4.00;;;2.45;;
75718;SDS011;64340;48.534;-3.036;2023-05-07T03:10:02;3.85;;;2.40;;
75718;SDS011;64340;48.534;-3.036;2023-05-07T03:12:29;4.05;;;2.35;;
75718;SDS011;64340;48.534;-3.036;2023-05-07T03:14:56;4.40;;;2.55;;
75718;SDS011;64340;48.534;-3.036;2023-05-07T03:17:22;4.15;;;3.03;;
75718;SDS011;64340;48.534;-3.036;2023-05-07T03:19:47;3.90;;;2.42;;
75718;SDS011;64340;48.534;-3.036;2023-05-07T03:22:13;4.35;;;2.75;;
75718;SDS011;64340;48.534;-3.036;2023-05-07T03:24:39;4.45;;;2.33;;
75718;SDS011;64340;48.534;-3.036;2023-05-07T03:27:05;4.53;;;2.63;;
75718;SDS011;64340;48.534;-3.036;2023-05-07T03:29:31;4.18;;;2.33;;
75718;SDS011;64340;48.534;-3.036;2023-05-07T03:31:57;3.20;;;2.35;;
75718;SDS011;64340;48.534;-3.036;2023-05-07T03:34:22;4.18;;;2.58;;
75718;SDS011;64340;48.534;-3.036;2023-05-07T03:36:49;4.45;;;2.65;;
75718;SDS011;64340;48.534;-3.036;2023-05-07T03:39:15;4.30;;;2.65;;
75718;SDS011;64340;48.534;-3.036;2023-05-07T03:41:40;4.97;;;2.85;;
75718;SDS011;64340;48.534;-3.036;2023-05-07T03:44:06;4.22;;;2.50;;
75718;SDS011;64340;48.534;-3.036;2023-05-07T03:46:32;3.92;;;2.40;;
75718;SDS011;64340;48.534;-3.036;2023-05-07T03:48:58;4.07;;;2.45;;
75718;SDS011;64340;48.534;-3.036;2023-05-07T03:51:24;4.70;;;2.95;;
75718;SDS011;64340;48.534;-3.036;2023-05-07T03:53:50;4.53;;;2.42;;
75718;SDS011;64340;48.534;-3.036;2023-05-07T03:56:18;5.22;;;2.70;;
75718;SDS011;64340;48.534;-3.036;2023-05-07T03:58:44;4.85;;;2.40;;
75718;SDS011;64340;48.534;-3.036;2023-05-07T04:01:10;4.75;;;2.72;;
75718;SDS011;64340;48.534;-3.036;2023-05-07T04:03:37;4.75;;;2.60;;
75718;SDS011;64340;48.534;-3.036;2023-05-07T04:06:02;5.82;;;3.00;;
75718;SDS011;64340;48.534;-3.036;2023-05-07T04:08:28;5.13;;;2.63;;
75718;SDS011;64340;48.534;-3.036;2023-05-07T04:10:55;3.97;;;2.40;;
75718;SDS011;64340;48.534;-3.036;2023-05-07T04:13:21;5.07;;;2.67;;
75718;SDS011;64340;48.534;-3.036;2023-05-07T04:15:46;4.53;;;2.28;;
75718;SDS011;64340;48.534;-3.036;2023-05-07T04:18:14;4.47;;;2.15;;
75718;SDS011;64340;48.534;-3.036;2023-05-07T04:20:40;5.03;;;2.88;;
75718;SDS011;64340;48.534;-3.036;2023-05-07T04:23:06;4.30;;;2.50;;
75718;SDS011;64340;48.534;-3.036;2023-05-07T04:25:33;5.32;;;2.97;;
75718;SDS011;64340;48.534;-3.036;2023-05-07T04:27:59;5.15;;;2.63;;
75718;SDS011;64340;48.534;-3.036;2023-05-07T04:30:25;6.10;;;3.00;;
75718;SDS011;64340;48.534;-3.036;2023-05-07T04:32:51;5.25;;;2.83;;
75718;SDS011;64340;48.534;-3.036;2023-05-07T04:35:18;5.68;;;2.72;;
75718;SDS011;64340;48.534;-3.036;2023-05-07T04:37:44;4.88;;;2.53;;
75718;SDS011;64340;48.534;-3.036;2023-05-07T04:40:09;4.25;;;2.38;;
75718;SDS011;64340;48.534;-3.036;2023-05-07T04:42:35;5.20;;;2.53;;
75718;SDS011;64340;48.534;-3.036;2023-05-07T04:45:01;5.35;;;2.83;;
75718;SDS011;64340;48.534;-3.036;2023-05-07T04:47:28;5.15;;;2.80;;
75718;SDS011;64340;48.534;-3.036;2023-05-07T04:49:53;4.07;;;2.55;;
75718;SDS011;64340;48.534;-3.036;2023-05-07T04:52:19;5.85;;;2.72;;
75718;SDS011;64340;48.534;-3.036;2023-05-07T04:54:45;5.53;;;2.60;;
75718;SDS011;64340;48.534;-3.036;2023-05-07T04:57:11;5.95;;;3.03;;
75718;SDS011;64340;48.534;-3.036;2023-05-07T04:59:36;5.07;;;2.33;;
75718;SDS011;64340;48.534;-3.036;2023-05-07T05:02:02;5.53;;;2.72;;
75718;SDS011;64340;48.534;-3.036;2023-05-07T05:04:29;6.68;;;2.72;;
75718;SDS011;64340;48.534;-3.036;2023-05-07T05:06:55;5.28;;;2.60;;
75718;SDS011;64340;48.534;-3.036;2023-05-07T05:09:21;4.43;;;2.30;;
75718;SDS011;64340;48.534;-3.036;2023-05-07T05:11:47;4.70;;;2.28;;
75718;SDS011;64340;48.534;-3.036;2023-05-07T05:14:12;5.68;;;2.95;;
75718;SDS011;64340;48.534;-3.036;2023-05-07T05:16:38;4.82;;;2.40;;
75718;SDS011;64340;48.534;-3.036;2023-05-07T05:19:04;5.18;;;2.33;;
75718;SDS011;64340;48.534;-3.036;2023-05-07T05:21:30;4.38;;;2.47;;
75718;SDS011;64340;48.534;-3.036;2023-05-07T05:23:57;5.20;;;2.60;;
75718;SDS011;64340;48.534;-3.036;2023-05-07T05:26:23;4.68;;;2.70;;
75718;SDS011;64340;48.534;-3.036;2023-05-07T05:28:49;5.13;;;2.15;;
75718;SDS011;64340;48.534;-3.036;2023-05-07T05:31:15;5.18;;;2.50;;
75718;SDS011;64340;48.534;-3.036;2023-05-07T05:33:41;4.75;;;2.58;;
75718;SDS011;64340;48.534;-3.036;2023-05-07T05:36:09;7.18;;;2.83;;
75718;SDS011;64340;48.534;-3.036;2023-05-07T05:38:35;5.80;;;2.40;;
75718;SDS011;64340;48.534;-3.036;2023-05-07T05:41:01;4.82;;;2.55;;
75718;SDS011;64340;48.534;-3.036;2023-05-07T05:43:27;4.95;;;2.30;;
75718;SDS011;64340;48.534;-3.036;2023-05-07T05:45:54;4.97;;;2.40;;
75718;SDS011;64340;48.534;-3.036;2023-05-07T05:48:21;5.43;;;3.10;;
75718;SDS011;64340;48.534;-3.036;2023-05-07T05:50:46;5.50;;;2.78;;
75718;SDS011;64340;48.534;-3.036;2023-05-07T05:53:12;4.93;;;2.58;;
75718;SDS011;64340;48.534;-3.036;2023-05-07T05:55:38;6.05;;;3.17;;
75718;SDS011;64340;48.534;-3.036;2023-05-07T05:58:04;6.85;;;2.72;;
75718;SDS011;64340;48.534;-3.036;2023-05-07T06:00:30;5.32;;;2.67;;
75718;SDS011;64340;48.534;-3.036;2023-05-07T06:02:55;5.10;;;2.58;;
75718;SDS011;64340;48.534;-3.036;2023-05-07T06:05:21;5.10;;;2.30;;
75718;SDS011;64340;48.534;-3.036;2023-05-07T06:07:47;5.00;;;2.45;;
75718;SDS011;64340;48.534;-3.036;2023-05-07T06:10:13;5.28;;;2.50;;
75718;SDS011;64340;48.534;-3.036;2023-05-07T06:12:39;5.07;;;2.40;;
75718;SDS011;64340;48.534;-3.036;2023-05-07T06:15:05;5.65;;;2.88;;
75718;SDS011;64340;48.534;-3.036;2023-05-07T06:17:31;5.05;;;2.78;;
75718;SDS011;64340;48.534;-3.036;2023-05-07T06:19:57;4.90;;;2.45;;
75718;SDS011;64340;48.534;-3.036;2023-05-07T06:22:23;5.10;;;2.60;;
75718;SDS011;64340;48.534;-3.036;2023-05-07T06:24:48;5.70;;;2.60;;
75718;SDS011;64340;48.534;-3.036;2023-05-07T06:27:14;5.97;;;3.03;;
75718;SDS011;64340;48.534;-3.036;2023-05-07T06:29:40;5.65;;;2.50;;
75718;SDS011;64340;48.534;-3.036;2023-05-07T06:32:06;4.00;;;2.47;;
75718;SDS011;64340;48.534;-3.036;2023-05-07T06:34:33;5.50;;;2.88;;
75718;SDS011;64340;48.534;-3.036;2023-05-07T06:36:58;4.65;;;2.45;;
75718;SDS011;64340;48.534;-3.036;2023-05-07T06:39:24;5.28;;;2.78;;
75718;SDS011;64340;48.534;-3.036;2023-05-07T06:41:50;5.70;;;2.65;;
75718;SDS011;64340;48.534;-3.036;2023-05-07T06:44:15;5.07;;;2.72;;
75718;SDS011;64340;48.534;-3.036;2023-05-07T06:46:41;6.00;;;2.72;;
75718;SDS011;64340;48.534;-3.036;2023-05-07T06:49:07;3.60;;;2.28;;
75718;SDS011;64340;48.534;-3.036;2023-05-07T06:51:33;6.18;;;2.92;;
75718;SDS011;64340;48.534;-3.036;2023-05-07T06:54:00;5.68;;;3.20;;
75718;SDS011;64340;48.534;-3.036;2023-05-07T06:56:25;6.28;;;2.72;;
75718;SDS011;64340;48.534;-3.036;2023-05-07T06:58:51;5.80;;;2.80;;
75718;SDS011;64340;48.534;-3.036;2023-05-07T07:01:17;6.10;;;2.85;;
75718;SDS011;64340;48.534;-3.036;2023-05-07T07:03:42;4.68;;;3.08;;
75718;SDS011;64340;48.534;-3.036;2023-05-07T07:06:08;5.68;;;2.75;;
75718;SDS011;64340;48.534;-3.036;2023-05-07T07:08:34;5.45;;;3.00;;
75718;SDS011;64340;48.534;-3.036;2023-05-07T07:11:00;5.65;;;3.20;;
75718;SDS011;64340;48.534;-3.036;2023-05-07T07:13:26;5.30;;;2.80;;
75718;SDS011;64340;48.534;-3.036;2023-05-07T07:15:52;6.35;;;3.22;;
75718;SDS011;64340;48.534;-3.036;2023-05-07T07:18:18;4.88;;;2.50;;
75718;SDS011;64340;48.534;-3.036;2023-05-07T07:20:44;5.53;;;2.60;;
75718;SDS011;64340;48.534;-3.036;2023-05-07T07:23:10;4.75;;;2.70;;
75718;SDS011;64340;48.534;-3.036;2023-05-07T07:25:36;7.32;;;3.03;;
75718;SDS011;64340;48.534;-3.036;2023-05-07T07:28:01;15.40;;;4.80;;
75718;SDS011;64340;48.534;-3.036;2023-05-07T07:30:27;19.83;;;5.00;;
75718;SDS011;64340;48.534;-3.036;2023-05-07T07:32:53;15.00;;;4.88;;
75718;SDS011;64340;48.534;-3.036;2023-05-07T07:35:20;14.02;;;4.93;;
75718;SDS011;64340;48.534;-3.036;2023-05-07T07:37:46;14.90;;;5.45;;
75718;SDS011;64340;48.534;-3.036;2023-05-07T07:40:14;17.85;;;5.30;;
75718;SDS011;64340;48.534;-3.036;2023-05-07T07:42:41;14.13;;;5.65;;
75718;SDS011;64340;48.534;-3.036;2023-05-07T07:45:07;18.27;;;5.20;;
75718;SDS011;64340;48.534;-3.036;2023-05-07T07:47:33;14.40;;;5.60;;
75718;SDS011;64340;48.534;-3.036;2023-05-07T07:49:59;17.80;;;5.47;;
75718;SDS011;64340;48.534;-3.036;2023-05-07T07:52:25;17.65;;;6.00;;
75718;SDS011;64340;48.534;-3.036;2023-05-07T07:54:51;18.08;;;5.38;;
75718;SDS011;64340;48.534;-3.036;2023-05-07T07:57:16;14.43;;;5.75;;
75718;SDS011;64340;48.534;-3.036;2023-05-07T07:59:42;15.73;;;5.50;;
75718;SDS011;64340;48.534;-3.036;2023-05-07T08:02:08;13.02;;;4.95;;
75718;SDS011;64340;48.534;-3.036;2023-05-07T08:04:34;17.05;;;5.68;;
75718;SDS011;64340;48.534;-3.036;2023-05-07T08:07:00;15.27;;;5.75;;
75718;SDS011;64340;48.534;-3.036;2023-05-07T08:09:26;10.82;;;5.43;;
75718;SDS011;64340;48.534;-3.036;2023-05-07T08:11:52;13.57;;;5.55;;
75718;SDS011;64340;48.534;-3.036;2023-05-07T08:14:18;15.02;;;5.68;;
75718;SDS011;64340;48.534;-3.036;2023-05-07T08:16:44;17.42;;;5.68;;
75718;SDS011;64340;48.534;-3.036;2023-05-07T08:19:10;14.50;;;5.43;;
75718;SDS011;64340;48.534;-3.036;2023-05-07T08:21:38;12.48;;;5.18;;
75718;SDS011;64340;48.534;-3.036;2023-05-07T08:24:04;16.88;;;5.43;;
75718;SDS011;64340;48.534;-3.036;2023-05-07T08:26:30;13.85;;;5.32;;
75718;SDS011;64340;48.534;-3.036;2023-05-07T08:28:56;14.15;;;6.32;;
75718;SDS011;64340;48.534;-3.036;2023-05-07T08:31:22;12.00;;;5.35;;
75718;SDS011;64340;48.534;-3.036;2023-05-07T08:33:48;14.80;;;5.47;;
75718;SDS011;64340;48.534;-3.036;2023-05-07T08:36:15;14.18;;;5.70;;
75718;SDS011;64340;48.534;-3.036;2023-05-07T08:38:41;16.35;;;6.93;;
75718;SDS011;64340;48.534;-3.036;2023-05-07T08:41:12;15.68;;;6.55;;
75718;SDS011;64340;48.534;-3.036;2023-05-07T08:43:37;15.98;;;6.55;;
75718;SDS011;64340;48.534;-3.036;2023-05-07T08:46:06;20.25;;;7.38;;
75718;SDS011;64340;48.534;-3.036;2023-05-07T08:48:34;22.27;;;9.13;;
75718;SDS011;64340;48.534;-3.036;2023-05-07T08:51:01;15.38;;;8.68;;
75718;SDS011;64340;48.534;-3.036;2023-05-07T08:53:27;15.07;;;7.65;;
75718;SDS011;64340;48.534;-3.036;2023-05-07T08:55:53;14.30;;;6.68;;
75718;SDS011;64340;48.534;-3.036;2023-05-07T08:58:19;9.25;;;5.05;;
75718;SDS011;64340;48.534;-3.036;2023-05-07T09:00:45;11.35;;;5.78;;
75718;SDS011;64340;48.534;-3.036;2023-05-07T09:03:12;9.30;;;4.70;;
75718;SDS011;64340;48.534;-3.036;2023-05-07T09:05:39;8.55;;;4.40;;
75718;SDS011;64340;48.534;-3.036;2023-05-07T09:08:05;10.52;;;4.95;;
75718;SDS011;64340;48.534;-3.036;2023-05-07T09:10:33;8.70;;;4.30;;
75718;SDS011;64340;48.534;-3.036;2023-05-07T09:12:59;9.57;;;4.40;;
75718;SDS011;64340;48.534;-3.036;2023-05-07T09:15:26;9.43;;;4.28;;
75718;SDS011;64340;48.534;-3.036;2023-05-07T09:17:53;9.65;;;4.60;;
75718;SDS011;64340;48.534;-3.036;2023-05-07T09:20:18;9.45;;;4.50;;
75718;SDS011;64340;48.534;-3.036;2023-05-07T09:22:44;7.03;;;3.85;;
75718;SDS011;64340;48.534;-3.036;2023-05-07T09:25:10;9.57;;;3.90;;
75718;SDS011;64340;48.534;-3.036;2023-05-07T09:27:36;8.38;;;4.07;;
75718;SDS011;64340;48.534;-3.036;2023-05-07T09:30:05;7.80;;;3.60;;
75718;SDS011;64340;48.534;-3.036;2023-05-07T09:32:35;6.72;;;3.33;;
75718;SDS011;64340;48.534;-3.036;2023-05-07T09:35:04;7.72;;;3.65;;
75718;SDS011;64340;48.534;-3.036;2023-05-07T09:37:31;6.68;;;3.50;;
75718;SDS011;64340;48.534;-3.036;2023-05-07T09:39:57;6.55;;;3.25;;
75718;SDS011;64340;48.534;-3.036;2023-05-07T09:42:23;7.75;;;3.20;;
75718;SDS011;64340;48.534;-3.036;2023-05-07T09:44:51;8.40;;;3.50;;
75718;SDS011;64340;48.534;-3.036;2023-05-07T09:47:18;6.88;;;2.78;;
75718;SDS011;64340;48.534;-3.036;2023-05-07T09:49:46;6.03;;;2.97;;
75718;SDS011;64340;48.534;-3.036;2023-05-07T09:52:13;8.00;;;2.92;;
75718;SDS011;64340;48.534;-3.036;2023-05-07T09:54:40;5.68;;;3.05;;
75718;SDS011;64340;48.534;-3.036;2023-05-07T09:57:09;7.57;;;3.17;;
75718;SDS011;64340;48.534;-3.036;2023-05-07T09:59:37;6.78;;;2.70;;
75718;SDS011;64340;48.534;-3.036;2023-05-07T10:02:03;6.40;;;2.85;;
75718;SDS011;64340;48.534;-3.036;2023-05-07T10:04:31;6.65;;;2.72;;
75718;SDS011;64340;48.534;-3.036;2023-05-07T10:06:58;6.43;;;3.00;;
75718;SDS011;64340;48.534;-3.036;2023-05-07T10:09:25;11.40;;;2.90;;
75718;SDS011;64340;48.534;-3.036;2023-05-07T10:11:51;5.68;;;2.80;;
75718;SDS011;64340;48.534;-3.036;2023-05-07T10:14:19;7.30;;;3.40;;
75718;SDS011;64340;48.534;-3.036;2023-05-07T10:16:46;7.45;;;2.80;;
75718;SDS011;64340;48.534;-3.036;2023-05-07T10:19:13;8.20;;;3.53;;
75718;SDS011;64340;48.534;-3.036;2023-05-07T10:21:47;7.35;;;2.67;;
75718;SDS011;64340;48.534;-3.036;2023-05-07T10:24:26;6.35;;;3.20;;
75718;SDS011;64340;48.534;-3.036;2023-05-07T10:26:54;7.47;;;3.03;;
75718;SDS011;64340;48.534;-3.036;2023-05-07T10:34:56;10.82;;;3.03;;
75718;SDS011;64340;48.534;-3.036;2023-05-07T10:37:26;9.25;;;3.00;;
75718;SDS011;64340;48.534;-3.036;2023-05-07T10:39:52;6.32;;;2.65;;
75718;SDS011;64340;48.534;-3.036;2023-05-07T10:42:18;6.30;;;2.65;;
75718;SDS011;64340;48.534;-3.036;2023-05-07T10:44:44;10.45;;;3.40;;
75718;SDS011;64340;48.534;-3.036;2023-05-07T10:47:10;6.55;;;2.80;;
75718;SDS011;64340;48.534;-3.036;2023-05-07T10:52:21;7.53;;;2.92;;
75718;SDS011;64340;48.534;-3.036;2023-05-07T10:57:42;7.63;;;2.60;;
75718;SDS011;64340;48.534;-3.036;2023-05-07T11:03:07;7.47;;;2.28;;
75718;SDS011;64340;48.534;-3.036;2023-05-07T11:05:33;5.40;;;2.42;;
75718;SDS011;64340;48.534;-3.036;2023-05-07T11:08:00;4.82;;;2.25;;
75718;SDS011;64340;48.534;-3.036;2023-05-07T11:14:03;4.32;;;2.05;;
75718;SDS011;64340;48.534;-3.036;2023-05-07T11:16:16;6.63;;;2.40;;
75718;SDS011;64340;48.534;-3.036;2023-05-07T11:18:53;6.95;;;2.28;;
75718;SDS011;64340;48.534;-3.036;2023-05-07T11:21:33;8.02;;;2.38;;
75718;SDS011;64340;48.534;-3.036;2023-05-07T11:24:00;5.55;;;1.75;;
75718;SDS011;64340;48.534;-3.036;2023-05-07T11:26:27;4.75;;;2.58;;
75718;SDS011;64340;48.534;-3.036;2023-05-07T11:28:55;4.63;;;1.83;;
75718;SDS011;64340;48.534;-3.036;2023-05-07T11:31:22;5.80;;;1.70;;
75718;SDS011;64340;48.534;-3.036;2023-05-07T11:33:49;7.93;;;2.08;;
75718;SDS011;64340;48.534;-3.036;2023-05-07T11:36:15;3.15;;;1.88;;
75718;SDS011;64340;48.534;-3.036;2023-05-07T11:38:41;5.57;;;1.80;;
75718;SDS011;64340;48.534;-3.036;2023-05-07T11:41:07;4.28;;;1.70;;
75718;SDS011;64340;48.534;-3.036;2023-05-07T11:43:33;5.45;;;2.10;;
75718;SDS011;64340;48.534;-3.036;2023-05-07T11:46:10;4.47;;;1.98;;
75718;SDS011;64340;48.534;-3.036;2023-05-07T11:48:37;4.45;;;1.65;;
75718;SDS011;64340;48.534;-3.036;2023-05-07T11:51:04;5.22;;;1.75;;
75718;SDS011;64340;48.534;-3.036;2023-05-07T11:53:40;4.63;;;1.80;;
75718;SDS011;64340;48.534;-3.036;2023-05-07T11:56:11;4.68;;;1.70;;
75718;SDS011;64340;48.534;-3.036;2023-05-07T11:58:38;5.68;;;2.03;;
75718;SDS011;64340;48.534;-3.036;2023-05-07T12:01:06;5.25;;;2.28;;
75718;SDS011;64340;48.534;-3.036;2023-05-07T12:03:34;4.55;;;1.70;;
75718;SDS011;64340;48.534;-3.036;2023-05-07T12:06:02;7.07;;;2.10;;
75718;SDS011;64340;48.534;-3.036;2023-05-07T12:08:30;3.33;;;1.52;;
75718;SDS011;64340;48.534;-3.036;2023-05-07T12:10:57;3.70;;;1.33;;
75718;SDS011;64340;48.534;-3.036;2023-05-07T12:13:24;5.60;;;1.75;;
75718;SDS011;64340;48.534;-3.036;2023-05-07T12:15:51;3.28;;;1.90;;
75718;SDS011;64340;48.534;-3.036;2023-05-07T12:18:20;4.82;;;1.92;;
75718;SDS011;64340;48.534;-3.036;2023-05-07T12:20:47;4.45;;;2.00;;
75718;SDS011;64340;48.534;-3.036;2023-05-07T12:23:14;4.85;;;1.67;;
75718;SDS011;64340;48.534;-3.036;2023-05-07T12:25:41;3.50;;;1.50;;
75718;SDS011;64340;48.534;-3.036;2023-05-07T12:28:15;3.13;;;1.52;;
75718;SDS011;64340;48.534;-3.036;2023-05-07T12:30:44;4.65;;;1.60;;
75718;SDS011;64340;48.534;-3.036;2023-05-07T12:33:17;3.85;;;2.00;;
75718;SDS011;64340;48.534;-3.036;2023-05-07T12:35:46;3.05;;;1.58;;
75718;SDS011;64340;48.534;-3.036;2023-05-07T12:38:14;6.38;;;1.83;;
75718;SDS011;64340;48.534;-3.036;2023-05-07T12:40:45;4.22;;;2.00;;
75718;SDS011;64340;48.534;-3.036;2023-05-07T12:43:28;8.63;;;1.92;;
75718;SDS011;64340;48.534;-3.036;2023-05-07T12:45:55;4.78;;;1.90;;
75718;SDS011;64340;48.534;-3.036;2023-05-07T12:48:23;4.60;;;1.70;;
75718;SDS011;64340;48.534;-3.036;2023-05-07T12:53:21;4.80;;;2.05;;
75718;SDS011;64340;48.534;-3.036;2023-05-07T12:55:48;5.15;;;2.45;;
75718;SDS011;64340;48.534;-3.036;2023-05-07T13:00:49;5.68;;;2.25;;
75718;SDS011;64340;48.534;-3.036;2023-05-07T13:03:28;3.42;;;1.95;;
75718;SDS011;64340;48.534;-3.036;2023-05-07T13:06:00;4.72;;;2.47;;
75718;SDS011;64340;48.534;-3.036;2023-05-07T13:10:55;4.43;;;2.33;;
75718;SDS011;64340;48.534;-3.036;2023-05-07T13:13:21;3.88;;;2.13;;
75718;SDS011;64340;48.534;-3.036;2023-05-07T13:15:47;4.95;;;2.40;;
75718;SDS011;64340;48.534;-3.036;2023-05-07T13:18:13;6.47;;;2.40;;
75718;SDS011;64340;48.534;-3.036;2023-05-07T13:20:39;4.05;;;2.30;;
75718;SDS011;64340;48.534;-3.036;2023-05-07T13:23:05;4.10;;;1.90;;
75718;SDS011;64340;48.534;-3.036;2023-05-07T13:25:31;5.25;;;2.00;;
75718;SDS011;64340;48.534;-3.036;2023-05-07T13:27:58;4.38;;;2.20;;
75718;SDS011;64340;48.534;-3.036;2023-05-07T13:30:24;4.55;;;1.90;;
75718;SDS011;64340;48.534;-3.036;2023-05-07T13:32:50;3.50;;;2.13;;
75718;SDS011;64340;48.534;-3.036;2023-05-07T13:35:17;4.38;;;3.35;;
75718;SDS011;64340;48.534;-3.036;2023-05-07T13:37:43;4.95;;;2.80;;
75718;SDS011;64340;48.534;-3.036;2023-05-07T13:40:09;4.28;;;2.30;;
75718;SDS011;64340;48.534;-3.036;2023-05-07T13:42:35;4.38;;;2.30;;
75718;SDS011;64340;48.534;-3.036;2023-05-07T13:45:00;6.20;;;2.35;;
75718;SDS011;64340;48.534;-3.036;2023-05-07T13:49:55;3.92;;;1.90;;
75718;SDS011;64340;48.534;-3.036;2023-05-07T13:52:21;5.68;;;2.25;;
75718;SDS011;64340;48.534;-3.036;2023-05-07T13:54:48;3.47;;;1.80;;
75718;SDS011;64340;48.534;-3.036;2023-05-07T13:57:14;4.28;;;2.30;;
75718;SDS011;64340;48.534;-3.036;2023-05-07T13:59:40;4.53;;;2.40;;
75718;SDS011;64340;48.534;-3.036;2023-05-07T14:02:08;5.57;;;2.20;;
75718;SDS011;64340;48.534;-3.036;2023-05-07T14:04:35;4.75;;;2.40;;
75718;SDS011;64340;48.534;-3.036;2023-05-07T14:07:02;4.03;;;2.00;;
75718;SDS011;64340;48.534;-3.036;2023-05-07T14:09:28;4.18;;;2.20;;
75718;SDS011;64340;48.534;-3.036;2023-05-07T14:11:54;4.18;;;2.10;;
75718;SDS011;64340;48.534;-3.036;2023-05-07T14:14:20;4.22;;;2.05;;
75718;SDS011;64340;48.534;-3.036;2023-05-07T14:16:46;5.63;;;2.22;;
75718;SDS011;64340;48.534;-3.036;2023-05-07T14:19:12;4.68;;;2.13;;
75718;SDS011;64340;48.534;-3.036;2023-05-07T14:21:38;4.25;;;2.17;;
75718;SDS011;64340;48.534;-3.036;2023-05-07T14:24:05;7.55;;;2.33;;
75718;SDS011;64340;48.534;-3.036;2023-05-07T14:26:32;4.22;;;2.33;;
75718;SDS011;64340;48.534;-3.036;2023-05-07T14:28:58;7.10;;;2.20;;
75718;SDS011;64340;48.534;-3.036;2023-05-07T14:31:24;7.93;;;2.45;;
75718;SDS011;64340;48.534;-3.036;2023-05-07T14:33:51;6.53;;;2.15;;
75718;SDS011;64340;48.534;-3.036;2023-05-07T14:36:17;3.15;;;1.98;;
75718;SDS011;64340;48.534;-3.036;2023-05-07T14:38:45;3.95;;;2.13;;
75718;SDS011;64340;48.534;-3.036;2023-05-07T14:41:11;6.47;;;2.17;;
75718;SDS011;64340;48.534;-3.036;2023-05-07T14:43:37;5.15;;;1.90;;
75718;SDS011;64340;48.534;-3.036;2023-05-07T14:46:03;3.75;;;1.90;;
75718;SDS011;64340;48.534;-3.036;2023-05-07T14:48:28;4.00;;;2.28;;
75718;SDS011;64340;48.534;-3.036;2023-05-07T14:50:54;3.15;;;1.80;;
75718;SDS011;64340;48.534;-3.036;2023-05-07T14:53:21;4.95;;;2.17;;
75718;SDS011;64340;48.534;-3.036;2023-05-07T14:55:47;5.53;;;2.05;;
75718;SDS011;64340;48.534;-3.036;2023-05-07T14:58:13;5.03;;;2.22;;